Puth, Netherlands
Current Conditions -  °F | °C
As of 9:25 PM on Saturday 25 Oct 2014 (Local Time) from EHBK Reporting Station
Clear Clear  
Wind Chill: 50°   Ceiling: Unl
Heat Index: 50°   Visibility: 6mi
Dew Point: 50°   Wind: 2mph
Humidity: 100%   Direction: 220°SW
Pressure: 30.18"   Gusts: NA
Location:  50.95°N, 5.87°E
Report Text: EHBK 251925Z AUTO 22002KT 9999 NCD 10/10 Q1022 NOSIG
Loading
Personal Weather Stations






























Interactive Weather Map
Tropical Storm Tracking
New forecast layout! Learn more

10-Day Weather Forecast

Advertisements
Track Severe Weather on mobile